Time;durP1;ratioP1;P1;durP2;ratioP2;P2;SDS_P1;SDS_P2;PMS_P1;PMS_P2;Temp;Humidity;BMP_temperature;BMP_pressure;BME280_temperature;BME280_humidity;BME280_pressure;Samples;Min_cycle;Max_cycle;Signal;HPM_P1;HPM_P2
2022/06/10 00:00:56;;;;;;;7.68;3.90;;;14.80;99.90;;;;;;4983547;28;20609;-76
2022/06/10 00:03:24;;;;;;;7.55;3.85;;;14.80;99.90;;;;;;4981994;28;20034;-77
2022/06/10 00:05:54;;;;;;;6.80;3.90;;;14.80;99.90;;;;;;4966410;28;20030;-76
2022/06/10 00:08:23;;;;;;;6.27;3.30;;;14.80;99.90;;;;;;4980685;28;20022;-76
2022/06/10 00:10:50;;;;;;;7.20;3.55;;;14.80;99.90;;;;;;4982742;28;20562;-76
2022/06/10 00:13:17;;;;;;;8.15;3.72;;;14.80;99.90;;;;;;4987626;28;20038;-76
2022/06/10 00:15:43;;;;;;;6.63;2.97;;;14.80;99.90;;;;;;4983372;28;20069;-77
2022/06/10 00:18:10;;;;;;;8.95;3.40;;;14.80;99.90;;;;;;4987851;28;20037;-75
2022/06/10 00:20:36;;;;;;;9.68;3.80;;;14.70;99.90;;;;;;4981967;28;21441;-75
2022/06/10 00:23:01;;;;;;;7.60;3.85;;;14.70;99.90;;;;;;4968740;28;20026;-76
2022/06/10 00:25:27;;;;;;;15.73;3.80;;;14.70;99.90;;;;;;4982723;28;20027;-75
2022/06/10 00:27:54;;;;;;;8.65;3.83;;;14.70;99.90;;;;;;4978800;28;20027;-75
2022/06/10 00:30:23;;;;;;;8.15;4.10;;;14.70;99.90;;;;;;4982595;28;20050;-75
2022/06/10 00:32:49;;;;;;;10.15;3.70;;;14.60;99.90;;;;;;4984182;28;20086;-79
2022/06/10 00:35:15;;;;;;;10.63;3.90;;;14.70;99.90;;;;;;4981111;28;20038;-77
2022/06/10 00:37:41;;;;;;;12.15;4.38;;;14.60;99.90;;;;;;4981017;28;20450;-76
2022/06/10 00:40:12;;;;;;;9.35;3.78;;;14.60;99.90;;;;;;4981840;28;20050;-76
2022/06/10 00:42:38;;;;;;;10.13;4.18;;;14.60;99.90;;;;;;4967970;28;20034;-76
2022/06/10 00:45:26;;;;;;;7.35;3.72;;;14.60;99.90;;;;;;4982883;28;20049;-75
2022/06/10 00:47:54;;;;;;;8.20;3.80;;;14.50;99.90;;;;;;4967437;28;20029;-75
2022/06/10 00:50:28;;;;;;;9.70;3.85;;;14.50;99.90;;;;;;4971732;28;20110;-78
2022/06/10 00:53:00;;;;;;;7.43;3.70;;;14.50;99.90;;;;;;4982459;28;20032;-75
2022/06/10 00:55:29;;;;;;;8.60;4.13;;;14.50;99.90;;;;;;4968288;28;20029;-76
2022/06/10 00:58:16;;;;;;;9.00;3.97;;;14.50;99.90;;;;;;4978980;28;20035;-78
2022/06/10 01:00:42;;;;;;;8.30;4.10;;;14.50;99.90;;;;;;4978803;28;20030;-77
2022/06/10 01:03:08;;;;;;;9.52;4.10;;;14.40;99.90;;;;;;4983237;28;20431;-75
2022/06/10 01:05:34;;;;;;;9.52;4.30;;;14.40;99.90;;;;;;4983128;28;20022;-75
2022/06/10 01:08:15;;;;;;;8.15;4.47;;;14.50;99.90;;;;;;4988006;28;20116;-76
2022/06/10 01:11:13;;;;;;;7.00;4.00;;;14.40;99.90;;;;;;4983852;28;20499;-78
2022/06/10 01:14:05;;;;;;;7.85;3.33;;;14.40;99.90;;;;;;5003966;28;20030;-76
2022/06/10 01:17:00;;;;;;;6.93;3.88;;;14.30;99.90;;;;;;4983213;28;20022;-75
2022/06/10 01:20:04;;;;;;;6.75;4.22;;;14.30;99.90;;;;;;4986706;28;20376;-75
2022/06/10 01:22:54;;;;;;;8.95;4.13;;;14.20;99.90;;;;;;4965720;28;20030;-76
2022/06/10 01:25:41;;;;;;;9.33;4.40;;;14.20;99.90;;;;;;4985181;28;20038;-75
2022/06/10 01:28:46;;;;;;;6.15;3.58;;;14.20;99.90;;;;;;4962425;28;20281;-75
2022/06/10 01:31:31;;;;;;;10.32;4.10;;;14.20;99.90;;;;;;4985146;28;20040;-77
2022/06/10 01:34:38;;;;;;;8.68;4.38;;;14.20;99.90;;;;;;4967914;28;20046;-75
2022/06/10 01:37:31;;;;;;;8.48;3.80;;;14.10;99.90;;;;;;4978089;28;20015;-74
2022/06/10 01:40:12;;;;;;;10.00;4.45;;;14.10;99.90;;;;;;4968774;28;20066;-74
2022/06/10 01:42:46;;;;;;;7.78;3.97;;;14.10;99.90;;;;;;4985024;28;20018;-75
2022/06/10 01:45:16;;;;;;;12.18;4.40;;;14.10;99.90;;;;;;4967346;28;20038;-76
2022/06/10 01:47:51;;;;;;;9.32;4.13;;;14.10;99.90;;;;;;4984241;28;20030;-76
2022/06/10 01:50:23;;;;;;;9.35;4.50;;;14.10;99.90;;;;;;4990089;28;20046;-75
2022/06/10 01:52:56;;;;;;;9.45;4.15;;;14.10;99.90;;;;;;4984758;28;20022;-76
2022/06/10 01:55:39;;;;;;;9.95;4.15;;;14.00;99.90;;;;;;4981185;28;20066;-76
2022/06/10 01:58:16;;;;;;;7.05;4.90;;;14.10;99.90;;;;;;4989921;28;20022;-75
2022/06/10 02:00:46;;;;;;;14.90;5.30;;;14.00;99.90;;;;;;4980343;28;20395;-77
2022/06/10 02:03:28;;;;;;;9.35;4.55;;;14.00;99.90;;;;;;4986000;28;20034;-74
2022/06/10 02:06:22;;;;;;;8.75;4.65;;;14.00;99.90;;;;;;4987821;28;20106;-74
2022/06/10 02:08:54;;;;;;;13.20;5.90;;;14.00;99.90;;;;;;4984807;28;20185;-74
2022/06/10 02:11:22;;;;;;;9.52;5.22;;;13.90;99.90;;;;;;4984430;28;20045;-72
2022/06/10 02:13:53;;;;;;;10.27;5.22;;;13.90;99.90;;;;;;4990662;28;20031;-73
2022/06/10 02:16:27;;;;;;;;;;;13.90;99.90;;;;;;4985618;28;20031;-75
2022/06/10 02:19:17;;;;;;;9.15;4.95;;;13.90;99.90;;;;;;4988098;28;19910;-77
2022/06/10 02:21:48;;;;;;;12.18;5.60;;;13.90;99.90;;;;;;4985127;28;20499;-75
2022/06/10 02:24:37;;;;;;;9.55;5.30;;;13.90;99.90;;;;;;4985850;28;20110;-75
2022/06/10 02:27:12;;;;;;;10.00;5.55;;;13.90;99.90;;;;;;4983807;28;20107;-75
2022/06/10 02:29:58;;;;;;;11.38;6.30;;;13.90;99.90;;;;;;4988708;28;20061;-75
2022/06/10 02:32:24;;;;;;;10.88;5.97;;;13.90;99.90;;;;;;4982327;28;20026;-75
2022/06/10 02:34:50;;;;;;;10.25;5.85;;;13.90;99.90;;;;;;4990016;28;20049;-74
2022/06/10 02:37:25;;;;;;;13.43;6.30;;;13.80;99.90;;;;;;4988331;28;20772;-74
2022/06/10 02:40:06;;;;;;;11.85;6.13;;;13.90;99.90;;;;;;4987263;28;20027;-77
2022/06/10 02:42:45;;;;;;;13.05;5.13;;;13.80;99.90;;;;;;4988470;28;20435;-76
2022/06/10 02:45:21;;;;;;;12.75;5.75;;;13.80;99.90;;;;;;4985143;28;20030;-75
2022/06/10 02:47:46;;;;;;;8.52;5.80;;;13.70;99.90;;;;;;4987172;28;20479;-77
2022/06/10 02:50:15;;;;;;;10.35;5.50;;;13.70;99.90;;;;;;4985758;28;20030;-75
2022/06/10 02:52:41;;;;;;;13.73;5.68;;;13.70;99.90;;;;;;4986765;28;20023;-75
2022/06/10 02:55:14;;;;;;;11.30;5.65;;;13.70;99.90;;;;;;4989538;28;20085;-74
2022/06/10 03:03:28;;;;;;;17.25;6.45;;;13.60;99.90;;;;;;4985520;28;20097;-75
2022/06/10 03:06:09;;;;;;;13.07;5.57;;;13.70;99.90;;;;;;4968244;28;20049;-80
2022/06/10 03:08:40;;;;;;;13.57;5.53;;;13.70;99.90;;;;;;4985292;28;20019;-75
2022/06/10 03:11:23;;;;;;;;;;;13.70;99.90;;;;;;4987478;28;20034;-78
2022/06/10 03:14:08;;;;;;;12.90;6.65;;;13.70;99.90;;;;;;4989847;28;19933;-81
2022/06/10 03:17:11;;;;;;;12.35;5.90;;;13.70;99.90;;;;;;5001047;28;20026;-75
2022/06/10 03:19:50;;;;;;;10.60;5.72;;;13.70;99.90;;;;;;4987070;28;20045;-75
2022/06/10 03:22:30;;;;;;;10.20;5.90;;;13.70;99.90;;;;;;4992150;28;20041;-75
2022/06/10 03:25:20;;;;;;;13.18;6.28;;;13.70;99.90;;;;;;4990246;28;20398;-77
2022/06/10 03:27:49;;;;;;;10.18;6.28;;;13.70;99.90;;;;;;4986094;28;20466;-74
2022/06/10 03:30:19;;;;;;;11.90;6.10;;;13.70;99.90;;;;;;4989513;28;20099;-75
2022/06/10 03:33:10;;;;;;;10.18;5.40;;;13.70;99.90;;;;;;4985507;28;20421;-77
2022/06/10 03:35:43;;;;;;;7.93;5.07;;;13.70;99.90;;;;;;4986382;28;20037;-76
2022/06/10 03:38:09;;;;;;;11.18;5.55;;;13.70;99.90;;;;;;4983333;28;20064;-76
2022/06/10 03:40:35;;;;;;;11.82;5.80;;;13.70;99.90;;;;;;4974927;28;20200;-76
2022/06/10 03:43:04;;;;;;;14.38;7.43;;;13.70;99.90;;;;;;4988973;28;20228;-76
2022/06/10 03:45:50;;;;;;;9.52;6.32;;;13.60;99.90;;;;;;4985187;28;20065;-75
2022/06/10 03:48:20;;;;;;;11.82;7.10;;;13.50;99.90;;;;;;4986696;28;20315;-76
2022/06/10 03:50:47;;;;;;;9.40;6.43;;;13.40;99.90;;;;;;4986117;28;20026;-77
2022/06/10 03:53:15;;;;;;;10.60;6.05;;;13.50;99.90;;;;;;4988848;28;20546;-75
2022/06/10 03:55:41;;;;;;;11.48;6.38;;;13.50;99.90;;;;;;4986837;28;20109;-75
2022/06/10 03:58:09;;;;;;;12.35;6.05;;;13.60;99.90;;;;;;4985601;28;20145;-76
2022/06/10 04:00:35;;;;;;;8.52;5.50;;;13.70;99.90;;;;;;4985024;28;20037;-76
2022/06/10 04:03:01;;;;;;;12.95;6.10;;;13.80;99.90;;;;;;4986155;28;20027;-76
2022/06/10 04:05:27;;;;;;;9.13;5.93;;;13.80;99.90;;;;;;4987439;28;20054;-74
2022/06/10 04:07:53;;;;;;;8.95;5.20;;;13.80;99.90;;;;;;4984745;28;20035;-75
2022/06/10 04:10:22;;;;;;;9.25;5.30;;;13.80;99.90;;;;;;4989386;28;20093;-74
2022/06/10 04:12:48;;;;;;;14.50;5.65;;;13.90;99.90;;;;;;4989463;28;20034;-75
2022/06/10 04:15:16;;;;;;;12.13;6.10;;;13.90;99.90;;;;;;4982868;28;20077;-77
2022/06/10 04:17:48;;;;;;;18.73;8.60;;;13.90;99.90;;;;;;4983621;28;20038;-76
2022/06/10 04:20:30;;;;;;;11.68;6.15;;;13.90;99.90;;;;;;4985806;28;20038;-75
2022/06/10 04:22:55;;;;;;;12.73;6.05;;;13.90;99.90;;;;;;4983129;28;20076;-74
2022/06/10 04:25:21;;;;;;;12.88;6.85;;;14.00;99.90;;;;;;4985938;28;20709;-73
2022/06/10 04:27:47;;;;;;;11.85;6.05;;;14.00;99.90;;;;;;4986247;28;20032;-73
2022/06/10 04:30:35;;;;;;;14.32;7.97;;;14.10;99.90;;;;;;4982338;28;20448;-73
2022/06/10 04:33:02;;;;;;;14.52;7.68;;;14.10;99.90;;;;;;4987983;28;20088;-73
2022/06/10 04:35:28;;;;;;;12.15;7.85;;;14.00;99.90;;;;;;4983704;28;20069;-73
2022/06/10 04:37:55;;;;;;;14.73;7.40;;;14.10;99.90;;;;;;4983947;28;20106;-73
2022/06/10 04:40:24;;;;;;;16.20;7.60;;;14.10;99.90;;;;;;4986724;28;20026;-74
2022/06/10 04:42:50;;;;;;;10.85;6.55;;;14.10;99.90;;;;;;4986670;28;20069;-74
2022/06/10 04:45:19;;;;;;;13.82;7.05;;;14.30;99.90;;;;;;4981321;28;20034;-73
2022/06/10 04:47:45;;;;;;;15.48;7.00;;;14.30;99.90;;;;;;4978510;28;20031;-74
2022/06/10 04:50:14;;;;;;;12.25;6.13;;;14.40;99.90;;;;;;4981818;28;20050;-75
2022/06/10 04:52:40;;;;;;;13.07;6.35;;;14.50;99.90;;;;;;4987555;28;20033;-75
2022/06/10 04:55:08;;;;;;;10.88;5.93;;;14.50;99.90;;;;;;4987802;28;20042;-75
2022/06/10 04:57:34;;;;;;;10.20;5.22;;;14.50;99.90;;;;;;4970732;28;20031;-76
2022/06/10 05:00:00;;;;;;;9.85;5.30;;;14.60;99.90;;;;;;4984654;28;20034;-76
2022/06/10 05:02:26;;;;;;;12.15;5.35;;;14.50;99.90;;;;;;4988878;28;20085;-77
2022/06/10 05:04:52;;;;;;;9.98;4.85;;;14.70;99.90;;;;;;4973100;28;20088;-77
2022/06/10 05:07:19;;;;;;;9.48;4.78;;;14.70;99.90;;;;;;5000972;28;20120;-77
2022/06/10 05:09:44;;;;;;;11.70;4.95;;;14.70;99.90;;;;;;4989812;28;20030;-73
2022/06/10 05:12:12;;;;;;;15.65;6.35;;;14.80;99.90;;;;;;4980151;28;20151;-77
2022/06/10 05:14:37;;;;;;;11.00;4.30;;;14.80;99.90;;;;;;4984271;28;20122;-77
2022/06/10 05:17:04;;;;;;;9.50;4.13;;;14.90;99.90;;;;;;4987409;28;20137;-79
2022/06/10 05:19:30;;;;;;;10.02;4.75;;;15.00;99.90;;;;;;4980249;28;20031;-75
2022/06/10 05:21:57;;;;;;;13.43;4.65;;;15.00;99.90;;;;;;4979293;28;20060;-77
2022/06/10 05:24:24;;;;;;;10.18;4.05;;;15.10;99.90;;;;;;4981259;28;20193;-76
2022/06/10 05:26:50;;;;;;;11.68;4.18;;;15.10;99.90;;;;;;4978985;28;20031;-78
2022/06/10 05:29:16;;;;;;;12.32;4.28;;;15.10;99.90;;;;;;4975065;28;20042;-76
2022/06/10 05:31:41;;;;;;;8.93;3.20;;;15.20;99.90;;;;;;4978543;28;20102;-76
2022/06/10 05:36:51;;;;;;;10.18;3.63;;;15.40;99.90;;;;;;4978793;28;20079;-77
2022/06/10 05:39:17;;;;;;;11.68;3.75;;;15.60;99.90;;;;;;4983396;28;20030;-76
2022/06/10 05:44:28;;;;;;;11.55;3.45;;;15.50;99.90;;;;;;4983468;28;20030;-75
2022/06/10 05:46:54;;;;;;;7.57;2.80;;;15.60;99.90;;;;;;4983774;28;20409;-77
2022/06/10 05:49:23;;;;;;;8.93;2.92;;;15.70;99.90;;;;;;4984041;28;20022;-77
2022/06/10 05:51:50;;;;;;;11.52;2.97;;;15.70;99.90;;;;;;4985714;28;20526;-75
2022/06/10 05:54:17;;;;;;;11.05;3.13;;;15.80;99.90;;;;;;4965797;28;20022;-75
2022/06/10 05:56:44;;;;;;;9.07;2.67;;;15.80;99.90;;;;;;4983558;28;20061;-75
2022/06/10 05:59:10;;;;;;;10.00;2.50;;;15.90;99.90;;;;;;4978522;28;20502;-77
2022/06/10 06:01:38;;;;;;;10.75;2.83;;;15.80;99.90;;;;;;4985699;28;20121;-77
2022/06/10 06:04:03;;;;;;;9.38;3.13;;;16.00;99.90;;;;;;4982924;28;20058;-76
2022/06/10 06:06:31;;;;;;;11.95;3.60;;;16.00;99.90;;;;;;4985808;28;20065;-75
2022/06/10 06:08:58;;;;;;;6.93;2.20;;;16.10;99.90;;;;;;4979950;28;20450;-77
2022/06/10 06:11:25;;;;;;;6.97;2.92;;;16.10;99.90;;;;;;4988527;28;20030;-76
2022/06/10 06:13:50;;;;;;;9.13;2.40;;;16.20;99.90;;;;;;4983980;28;20120;-78
2022/06/10 06:16:18;;;;;;;9.13;2.67;;;16.20;99.90;;;;;;4986734;28;20070;-77
2022/06/10 06:18:44;;;;;;;7.72;2.20;;;16.20;99.90;;;;;;4979862;28;20037;-76
2022/06/10 06:21:12;;;;;;;4.63;2.08;;;16.30;99.90;;;;;;4988526;28;20092;-77
2022/06/10 06:23:38;;;;;;;9.25;2.30;;;16.30;99.90;;;;;;4985456;28;20035;-77
2022/06/10 06:26:04;;;;;;;3.40;1.52;;;16.30;99.90;;;;;;4987900;28;20025;-76
2022/06/10 06:28:31;;;;;;;11.52;2.55;;;16.40;99.90;;;;;;4977456;28;20081;-76
2022/06/10 06:30:57;;;;;;;12.35;2.45;;;16.40;99.90;;;;;;4986216;28;20054;-76
2022/06/10 06:33:23;;;;;;;8.25;2.13;;;16.40;99.90;;;;;;4985069;28;20030;-75
2022/06/10 06:35:53;;;;;;;8.73;1.98;;;16.50;99.90;;;;;;4980446;28;20077;-80
2022/06/10 06:38:21;;;;;;;9.90;2.55;;;16.50;99.90;;;;;;4984109;28;20034;-77
2022/06/10 06:40:48;;;;;;;11.05;2.42;;;16.70;99.90;;;;;;4983799;28;20031;-77
2022/06/10 06:43:15;;;;;;;5.82;1.60;;;16.70;99.90;;;;;;4980150;28;20414;-75
2022/06/10 06:45:43;;;;;;;7.78;1.60;;;16.80;99.90;;;;;;4987454;28;20026;-77
2022/06/10 06:48:11;;;;;;;4.53;1.80;;;17.00;99.90;;;;;;4982393;28;20085;-76
2022/06/10 06:50:46;;;;;;;9.40;2.17;;;17.20;99.90;;;;;;4977174;28;20057;-78
2022/06/10 06:53:13;;;;;;;9.70;2.08;;;17.00;99.90;;;;;;4977691;28;20057;-77
2022/06/10 06:55:41;;;;;;;6.18;1.90;;;17.10;99.90;;;;;;4986437;28;20035;-80
2022/06/10 06:58:12;;;;;;;8.48;2.95;;;17.20;99.90;;;;;;4977315;28;20066;-76
2022/06/10 07:00:37;;;;;;;8.45;2.80;;;17.20;99.90;;;;;;4977631;28;20447;-79
2022/06/10 07:03:05;;;;;;;6.25;2.10;;;17.30;99.90;;;;;;4977300;28;20026;-78
2022/06/10 07:05:31;;;;;;;5.82;2.20;;;17.30;99.90;;;;;;4975227;28;20031;-77
2022/06/10 07:07:58;;;;;;;7.03;2.13;;;17.40;99.90;;;;;;4967550;28;20041;-77
2022/06/10 07:10:25;;;;;;;8.15;1.92;;;17.40;99.90;;;;;;4972867;28;20023;-79
2022/06/10 07:12:51;;;;;;;3.92;1.50;;;17.40;99.90;;;;;;4971194;28;20026;-75
2022/06/10 07:15:19;;;;;;;9.40;2.47;;;17.50;99.90;;;;;;4973126;28;20034;-77
2022/06/10 07:17:45;;;;;;;6.97;2.17;;;17.50;99.90;;;;;;4981957;28;20041;-75
2022/06/10 07:20:29;;;;;;;7.68;2.47;;;17.60;99.90;;;;;;4982910;28;20030;-76
2022/06/10 07:22:57;;;;;;;9.93;2.10;;;17.70;99.90;;;;;;4993338;28;20413;-76
2022/06/10 07:25:25;;;;;;;6.10;1.75;;;17.70;99.90;;;;;;4973541;28;20027;-77
2022/06/10 07:27:52;;;;;;;6.35;1.75;;;17.70;99.90;;;;;;4952716;28;20184;-76
2022/06/10 07:30:20;;;;;;;6.78;2.03;;;17.80;99.90;;;;;;4981142;28;20037;-75
2022/06/10 07:32:49;;;;;;;12.23;2.35;;;17.90;99.90;;;;;;4967446;28;20510;-77
2022/06/10 07:35:17;;;;;;;6.45;2.05;;;17.90;99.90;;;;;;4972319;28;20508;-79
2022/06/10 07:37:42;;;;;;;6.88;2.13;;;17.90;99.90;;;;;;4978626;28;20105;-76
2022/06/10 07:41:56;;;;;;;6.75;2.38;;;17.90;99.90;;;;;;4978946;28;20030;-76
2022/06/10 07:42:55;;;;;;;8.13;2.08;;;17.90;99.90;;;;;;4978052;28;20058;-78
2022/06/10 07:45:22;;;;;;;10.13;2.55;;;18.00;99.90;;;;;;4984403;28;20062;-77
2022/06/10 07:47:47;;;;;;;9.05;1.63;;;18.10;99.90;;;;;;4983694;28;20069;-76
2022/06/10 07:50:13;;;;;;;5.20;1.90;;;18.10;99.90;;;;;;4982555;28;20244;-75
2022/06/10 07:52:39;;;;;;;6.43;2.05;;;18.20;99.90;;;;;;4983807;28;20030;-76
2022/06/10 07:55:05;;;;;;;6.72;1.77;;;18.30;99.90;;;;;;4981646;28;20042;-77
2022/06/10 07:57:31;;;;;;;8.68;2.08;;;18.30;99.90;;;;;;4972889;28;20118;-76
2022/06/10 07:59:57;;;;;;;5.85;1.70;;;18.40;99.90;;;;;;4974787;28;20165;-76
2022/06/10 08:02:23;;;;;;;8.98;1.92;;;18.40;99.90;;;;;;4978968;28;20030;-76
2022/06/10 08:04:48;;;;;;;8.25;2.13;;;18.30;99.80;;;;;;4979056;28;20062;-76
2022/06/10 08:07:15;;;;;;;6.35;1.98;;;18.40;99.90;;;;;;4986716;28;20090;-76
2022/06/10 08:09:41;;;;;;;9.65;2.20;;;18.60;99.90;;;;;;4975756;28;20494;-76
2022/06/10 08:12:07;;;;;;;6.70;1.70;;;18.60;99.90;;;;;;4983935;28;20049;-75
2022/06/10 08:14:33;;;;;;;6.95;1.75;;;18.60;99.90;;;;;;4980376;28;20077;-75
2022/06/10 08:17:03;;;;;;;7.63;1.90;;;18.70;99.90;;;;;;4970467;28;20051;-76
2022/06/10 08:19:29;;;;;;;5.40;1.67;;;18.70;99.90;;;;;;4969866;28;20082;-76
2022/06/10 08:24:40;;;;;;;7.72;2.30;;;18.80;99.90;;;;;;4969909;28;20033;-74
2022/06/10 08:27:05;;;;;;;8.90;1.70;;;19.00;99.90;;;;;;4989243;28;20030;-76
2022/06/10 08:29:31;;;;;;;4.85;1.40;;;19.00;99.90;;;;;;4989099;28;20486;-77
2022/06/10 08:31:57;;;;;;;6.35;1.83;;;19.10;99.30;;;;;;4977712;28;20409;-76
2022/06/10 08:34:22;;;;;;;7.10;1.42;;;19.10;98.20;;;;;;4985867;28;20077;-75
2022/06/10 08:36:48;;;;;;;6.82;1.67;;;19.20;98.90;;;;;;4986033;28;20037;-75
2022/06/10 08:39:14;;;;;;;6.75;1.77;;;19.30;99.20;;;;;;4987131;28;20077;-75
2022/06/10 08:42:03;;;;;;;4.35;1.48;;;19.30;99.20;;;;;;4982360;28;20495;-76
2022/06/10 08:44:49;;;;;;;5.72;1.50;;;19.50;98.90;;;;;;4982362;28;20030;-75
2022/06/10 08:47:46;;;;;;;6.55;1.98;;;19.50;98.50;;;;;;4982291;28;20080;-77
2022/06/10 08:50:22;;;;;;;9.43;2.70;;;19.50;97.60;;;;;;4971480;28;20046;-77
2022/06/10 08:53:26;;;;;;;5.88;2.00;;;19.60;96.90;;;;;;4980053;28;20034;-75
2022/06/10 08:56:06;;;;;;;5.85;1.88;;;19.70;97.10;;;;;;4978937;28;20121;-76
2022/06/10 08:58:37;;;;;;;9.88;2.22;;;19.80;96.80;;;;;;4984410;28;20030;-75
2022/06/10 09:01:07;;;;;;;13.15;2.45;;;19.90;96.80;;;;;;4968649;28;20547;-76
2022/06/10 09:03:56;;;;;;;7.03;2.53;;;20.00;96.60;;;;;;4963004;28;20471;-76
2022/06/10 09:06:29;;;;;;;8.85;2.70;;;20.10;96.90;;;;;;4974275;28;20101;-76
2022/06/10 09:09:02;;;;;;;8.55;2.20;;;20.00;96.50;;;;;;4984055;28;20414;-79
2022/06/10 09:11:46;;;;;;;8.65;2.30;;;20.10;97.30;;;;;;4985523;28;20450;-76
2022/06/10 09:14:18;;;;;;;7.00;2.05;;;20.10;96.60;;;;;;4980423;28;20034;-77
2022/06/10 09:16:56;;;;;;;7.35;2.22;;;20.30;97.00;;;;;;4962389;28;20121;-76
2022/06/10 09:19:43;;;;;;;13.27;3.10;;;20.50;96.80;;;;;;4978312;28;20117;-74
2022/06/10 09:22:18;;;;;;;8.43;2.65;;;20.50;95.50;;;;;;4980423;28;20069;-75
2022/06/10 09:25:02;;;;;;;5.20;1.90;;;20.50;95.70;;;;;;4982415;28;20022;-76
2022/06/10 09:27:39;;;;;;;6.72;2.10;;;20.50;96.50;;;;;;4980954;28;20037;-77
2022/06/10 09:30:09;;;;;;;5.70;2.35;;;20.60;96.20;;;;;;4970572;28;20026;-76
2022/06/10 09:32:35;;;;;;;7.38;2.85;;;20.70;96.60;;;;;;4968106;28;20026;-78
2022/06/10 09:35:18;;;;;;;9.75;2.58;;;20.90;96.70;;;;;;4978420;28;20038;-77
2022/06/10 09:38:09;;;;;;;6.40;2.50;;;21.20;95.90;;;;;;4977109;28;20490;-76
2022/06/10 09:40:37;;;;;;;5.70;2.58;;;21.30;95.20;;;;;;4971240;28;20118;-76
2022/06/10 09:43:20;;;;;;;8.23;2.58;;;21.30;95.00;;;;;;4979024;28;20023;-75
2022/06/10 09:46:13;;;;;;;10.43;2.78;;;21.30;95.20;;;;;;4967793;28;20034;-75
2022/06/10 09:49:12;;;;;;;8.70;2.17;;;21.40;94.50;;;;;;4974857;28;20483;-77
2022/06/10 09:51:50;;;;;;;8.13;2.15;;;21.30;92.80;;;;;;4973302;28;20033;-76
2022/06/10 09:54:28;;;;;;;23.23;2.80;;;21.50;94.20;;;;;;4964015;28;20113;-77
2022/06/10 09:57:14;;;;;;;11.90;2.30;;;21.60;93.40;;;;;;4974436;28;20045;-76
2022/06/10 09:59:56;;;;;;;7.43;3.00;;;21.50;92.90;;;;;;4999983;28;20110;-75
2022/06/10 10:02:45;;;;;;;9.18;2.35;;;21.40;93.50;;;;;;4983426;28;20478;-77
2022/06/10 10:05:33;;;;;;;7.72;2.40;;;21.50;91.90;;;;;;4984943;28;20125;-76
2022/06/10 10:08:05;;;;;;;8.13;2.83;;;21.50;92.20;;;;;;4978293;28;20059;-77
2022/06/10 10:10:50;;;;;;;5.72;2.72;;;21.50;90.10;;;;;;4987460;28;20019;-76
2022/06/10 10:13:58;;;;;;;6.45;2.25;;;21.80;91.00;;;;;;4986818;28;20403;-76
2022/06/10 10:16:46;;;;;;;9.88;2.35;;;21.90;91.40;;;;;;4985216;28;20494;-76
2022/06/10 10:19:17;;;;;;;10.93;3.05;;;21.70;91.20;;;;;;4990900;28;20092;-77
2022/06/10 10:21:43;;;;;;;8.10;2.30;;;21.60;91.30;;;;;;4988726;28;20187;-76
2022/06/10 10:24:17;;;;;;;8.77;3.20;;;21.50;92.90;;;;;;4985574;28;20116;-77
2022/06/10 10:26:44;;;;;;;6.72;2.55;;;21.30;90.30;;;;;;4984510;28;20026;-77
2022/06/10 10:29:33;;;;;;;7.20;2.70;;;21.40;91.60;;;;;;4992140;28;20076;-76
2022/06/10 10:32:10;;;;;;;3.63;1.60;;;21.50;91.30;;;;;;4979083;28;20038;-79
2022/06/10 10:34:39;;;;;;;5.47;2.03;;;21.60;93.00;;;;;;4989615;28;20038;-78
2022/06/10 10:37:45;;;;;;;9.48;2.35;;;21.60;93.00;;;;;;4988383;28;20466;-78
2022/06/10 10:40:20;;;;;;;4.28;1.80;;;21.60;91.70;;;;;;4991280;28;20039;-80
2022/06/10 10:42:49;;;;;;;6.97;2.10;;;21.70;90.60;;;;;;4990155;28;20084;-77
2022/06/10 10:45:35;;;;;;;7.03;1.70;;;21.80;91.70;;;;;;4990126;28;20042;-77
2022/06/10 10:48:13;;;;;;;6.28;1.90;;;21.90;92.00;;;;;;4989667;28;20109;-76
2022/06/10 10:51:02;;;;;;;5.20;2.03;;;22.10;91.10;;;;;;4979587;28;20066;-76
2022/06/10 10:53:57;;;;;;;6.07;1.88;;;22.30;91.10;;;;;;4983098;28;20033;-77
2022/06/10 10:56:33;;;;;;;5.97;1.63;;;22.50;90.60;;;;;;4988846;28;20037;-75
2022/06/10 10:59:00;;;;;;;4.85;1.60;;;22.40;89.30;;;;;;4976006;28;20034;-80
2022/06/10 11:01:44;;;;;;;4.95;1.60;;;22.40;86.50;;;;;;4989009;28;20031;-77
2022/06/10 11:04:12;;;;;;;4.13;1.73;;;22.50;86.30;;;;;;4963906;28;20026;-74
2022/06/10 11:06:38;;;;;;;3.63;1.52;;;22.60;85.30;;;;;;4977486;28;20386;-74
2022/06/10 11:09:21;;;;;;;5.70;2.00;;;22.60;86.80;;;;;;4975623;28;20034;-78
2022/06/10 11:11:49;;;;;;;7.07;2.30;;;22.50;86.90;;;;;;4983554;28;20030;-76
2022/06/10 11:14:27;;;;;;;7.80;1.73;;;22.40;85.80;;;;;;4982204;28;20518;-73
2022/06/10 11:17:11;;;;;;;6.13;1.67;;;22.40;86.70;;;;;;4970749;28;20057;-75
2022/06/10 11:19:37;;;;;;;5.85;1.83;;;22.80;84.60;;;;;;4981156;28;20045;-75
2022/06/10 11:22:15;;;;;;;10.77;2.55;;;23.50;82.80;;;;;;4984902;28;20061;-75
2022/06/10 11:24:48;;;;;;;5.95;1.88;;;24.20;74.80;;;;;;4981922;28;20033;-78
2022/06/10 11:27:29;;;;;;;7.50;1.85;;;24.80;74.30;;;;;;4982942;28;20019;-75
2022/06/10 11:30:10;;;;;;;8.07;3.40;;;24.60;71.20;;;;;;4981964;28;20026;-74
2022/06/10 11:32:42;;;;;;;12.88;2.53;;;24.40;75.60;;;;;;4983999;28;20034;-75
2022/06/10 11:35:28;;;;;;;7.53;2.58;;;25.50;74.30;;;;;;4978503;28;20031;-76
2022/06/10 11:38:28;;;;;;;5.03;1.55;;;28.10;71.00;;;;;;4978289;28;20026;-75
2022/06/10 11:40:57;;;;;;;11.50;2.15;;;30.90;58.90;;;;;;4978058;28;20061;-76
2022/06/10 11:43:33;;;;;;;7.90;1.88;;;32.50;50.80;;;;;;4976222;28;20022;-75
2022/06/10 11:46:22;;;;;;;6.18;2.13;;;30.60;47.20;;;;;;4974541;28;20035;-73
2022/06/10 11:48:59;;;;;;;3.92;1.70;;;29.70;51.80;;;;;;4976650;28;20033;-71
2022/06/10 11:51:43;;;;;;;4.82;1.52;;;30.90;51.60;;;;;;4982684;28;20421;-73
2022/06/10 11:54:35;;;;;;;4.55;1.60;;;32.50;49.70;;;;;;4981749;28;20038;-74
2022/06/10 12:00:45;;;;;;;7.22;1.95;;;33.40;44.80;;;;;;4982140;28;20573;-76
2022/06/10 12:03:33;;;;;;;5.18;1.42;;;31.20;44.10;;;;;;4955069;28;20049;-72
2022/06/10 12:06:22;;;;;;;5.72;1.70;;;30.70;47.30;;;;;;4969806;28;20035;-72
2022/06/10 12:09:15;;;;;;;3.40;1.30;;;30.70;48.10;;;;;;4975078;28;20026;-72
2022/06/10 12:11:50;;;;;;;4.65;1.40;;;30.40;48.70;;;;;;4989449;28;20038;-74
2022/06/10 12:14:19;;;;;;;3.88;1.73;;;29.80;49.80;;;;;;4980750;28;20038;-73
2022/06/10 12:16:52;;;;;;;4.15;1.58;;;29.40;50.40;;;;;;4985393;28;20041;-73
2022/06/10 12:19:30;;;;;;;3.83;1.50;;;29.40;51.80;;;;;;4974118;28;20038;-73
2022/06/10 12:21:56;;;;;;;4.90;1.63;;;30.10;50.80;;;;;;4982707;28;20038;-73
2022/06/10 12:24:21;;;;;;;4.38;1.80;;;30.60;50.20;;;;;;4980457;28;21383;-73
2022/06/10 12:27:03;;;;;;;5.47;2.17;;;30.60;48.70;;;;;;4982690;28;20109;-73
2022/06/10 12:29:43;;;;;;;5.93;2.00;;;30.60;49.00;;;;;;4978900;28;20076;-73
2022/06/10 12:32:24;;;;;;;6.90;1.98;;;30.20;48.60;;;;;;4973605;28;20495;-73
2022/06/10 12:35:03;;;;;;;3.13;1.50;;;30.00;50.50;;;;;;4970681;28;20030;-73
2022/06/10 12:37:32;;;;;;;5.35;1.70;;;29.60;50.70;;;;;;4974724;28;20034;-72
2022/06/10 12:40:02;;;;;;;4.60;2.22;;;29.10;51.40;;;;;;4961522;28;21353;-74
2022/06/10 12:42:46;;;;;;;8.75;2.47;;;28.10;52.90;;;;;;4985919;28;20034;-73
2022/06/10 12:45:24;;;;;;;8.35;2.05;;;27.30;53.50;;;;;;4975678;28;20083;-72
2022/06/10 12:48:00;;;;;;;6.05;2.28;;;26.90;56.00;;;;;;4986364;28;20041;-73
2022/06/10 12:50:35;;;;;;;5.88;2.00;;;27.70;56.40;;;;;;4981475;28;20498;-73
2022/06/10 12:53:28;;;;;;;4.53;2.17;;;28.30;54.90;;;;;;4976429;28;20015;-72
2022/06/10 12:55:57;;;;;;;7.38;2.67;;;28.00;54.90;;;;;;4981419;28;20058;-74
2022/06/10 12:58:38;;;;;;;4.97;2.20;;;27.20;54.30;;;;;;4988427;28;20091;-71
2022/06/10 13:01:15;;;;;;;6.47;2.53;;;27.10;56.90;;;;;;4991033;28;20023;-72
2022/06/10 13:03:43;;;;;;;6.22;2.05;;;27.00;56.90;;;;;;4981070;28;20109;-72
2022/06/10 13:06:47;;;;;;;7.03;1.70;;;27.40;58.80;;;;;;4972872;28;20037;-72
2022/06/10 13:09:12;;;;;;;5.20;1.67;;;28.30;55.80;;;;;;4980527;28;20426;-73
2022/06/10 13:11:49;;;;;;;3.50;1.20;;;27.90;55.20;;;;;;4979548;28;20081;-72
2022/06/10 13:14:30;;;;;;;4.30;1.40;;;27.90;55.90;;;;;;4981085;28;20042;-73
2022/06/10 13:17:00;;;;;;;4.28;1.25;;;27.80;56.30;;;;;;4981569;28;20066;-73
2022/06/10 13:19:34;;;;;;;7.00;2.05;;;27.40;57.20;;;;;;4977263;28;20034;-73
2022/06/10 13:22:19;;;;;;;6.47;1.80;;;26.80;57.40;;;;;;4980156;28;20039;-73
2022/06/10 13:25:05;;;;;;;4.30;1.45;;;26.60;60.30;;;;;;4983087;28;20447;-74
2022/06/10 13:27:35;;;;;;;5.50;1.50;;;27.10;59.00;;;;;;4975665;28;20066;-73
2022/06/10 13:30:11;;;;;;;5.13;1.60;;;27.40;59.40;;;;;;4979729;28;20026;-72
2022/06/10 13:33:01;;;;;;;4.72;1.40;;;27.80;58.70;;;;;;4980811;28;20035;-71
2022/06/10 13:35:45;;;;;;;5.05;1.60;;;28.20;57.40;;;;;;4982144;28;20497;-72
2022/06/10 13:38:33;;;;;;;3.92;1.60;;;28.00;57.00;;;;;;4975900;28;20423;-73